Taurus — 2CPB4 — position and weather

sailwx.info

Track history (hours):
 
Tides and Currents Weather Stations Pressure Air Temp Water Temp Dewpoint Dewpoint Depression Visibility Wind Speed Wind Dir Waves Ship Positions

Taurus

Last reported at 2016-Apr-27 03:30 UTC. Time now 2016-May-01 00:24 UTC.
Position N 38°41' E 120°13'.

Length 292 m; draft 18.9 m.

Type: Cargo ship. MMSI: 235074621.

Date/timePositionNaut miles runAvg speedWind from/ knotsBaromVisibWave heightAir tempDewpointWater temp
2016-Apr-27 03:30N 38°41' E 120°13'1110.8
2016-Apr-27 02:30N 38°39' E 120°26'2310.1
2016-Apr-27 00:15N 38°36' E 120°55'710.2
2016-Apr-26 23:33N 38°33' E 121°03'1110.1
2016-Apr-26 22:29N 38°28' E 121°16'1010.6
2016-Apr-26 21:33N 38°24' E 121°27'1110.7
2016-Apr-26 20:33N 38°19' E 121°39'5510.6
2016-Apr-26 15:22N 37°54' E 122°41'1111.2
2016-Apr-26 14:25N 37°49' E 122°53'  
2016-Apr-22 07:12N 20°07' E 119°33'3710.2
2016-Apr-22 03:31N 19°38' E 119°08'  
Track history (hours):
 
Tides and Currents Weather Stations Pressure Air Temp Water Temp Dewpoint Dewpoint Depression Visibility Wind Speed Wind Dir Waves Ship Positions

Taurus

Last reported at 2016-Apr-27 03:30 UTC. Time now 2016-May-01 00:24 UTC.
Position N 38°41' E 120°13'.

Length 292 m; draft 18.9 m.

Type: Cargo ship. MMSI: 235074621.

Date/timePositionNaut miles runAvg speedWind from/ knotsBaromVisibWave heightAir tempDewpointWater temp
2016-Apr-27 03:30N 38°41' E 120°13'1110.8
2016-Apr-27 02:30N 38°39' E 120°26'2310.1
2016-Apr-27 00:15N 38°36' E 120°55'710.2
2016-Apr-26 23:33N 38°33' E 121°03'1110.1
2016-Apr-26 22:29N 38°28' E 121°16'1010.6
2016-Apr-26 21:33N 38°24' E 121°27'1110.7
2016-Apr-26 20:33N 38°19' E 121°39'5510.6
2016-Apr-26 15:22N 37°54' E 122°41'1111.2
2016-Apr-26 14:25N 37°49' E 122°53'  
2016-Apr-22 07:12N 20°07' E 119°33'3710.2
2016-Apr-22 03:31N 19°38' E 119°08'  

Dump ship's entire track history